Cedar Rapids, IA

8:59 PM CST on February 11, 2016 (GMT -0600)
Downtown Cedar Rapids - KCRG | | Change Station
CLOSE
Current Station
Personal Weather Station
Location: Cedar Rapids, IA
Elevation: 768 ft
Nearby Weather Stations

Elev 768 ft 41.98 °N, 91.66 °W | Updated 1 minute ago

Overcast
Overcast
21.7 °F
Feels Like 22 °F
N
0.0
Wind Variable Wind from NW
Gusts 0.0 mph

Today
High -- | Low -- °F
--% Chance of Precip.
Yesterday
High -- | Low -- °F
Precip. -- in
Pressure 30.30 in
Visibility 10.0 miles
Clouds Overcast 5500 ft
Windchill 22 °F
Dew Point 9 °F
Humidity 58%
Rainfall 0.00 in
Snow Depth Not available.
7:08 AM 5:33 PM
Waxing Crescent, 16% visible
METAR KCID 120252Z 20003KT 10SM OVC055 M07/M11 A3025 RMK AO2 SLP258 T10671106 58003
Pressure 30.30 in
Visibility 10.0 miles
Clouds Overcast 5500 ft
Windchill 22 °F
Dew Point 9 °F
Humidity 58%
Rainfall 0.00 in
Snow Depth Not available.
7:08 AM 5:33 PM
Waxing Crescent, 16% visible
METAR KCID 120252Z 20003KT 10SM OVC055 M07/M11 A3025 RMK AO2 SLP258 T10671106 58003

10-Day Weather Forecast

Almanac

Astronomy

Feb. 11, 2016 Rise Set
Actual Time
Civil Twilight
Nautical Twilight
Astronomical Twilight
Moon
Length of Visible Light
Length of Day
Tomorrow will be .
, % of the Moon is Illuminated

Today's Extremes

State Highs State Lows

Community

WunderPhotos

Upload Photos

1,892,226 photos uploaded!

WunderBlog® & News

Nearby

Air Quality

  Air Quality AQ Index Pollutant
Not available.

Snow Depth

Station Depth Elevation

Earthquake Activity

City Distance Mag. Time & Date
Minimum magnitude displayed is 2.5.

Coastal Water Temperatures

Place Temperature

Stations

Nearby Weather Stations

Station Location Temp. Windchill Dew Point Humidity Wind Precip. Elev Updated Type
                   

Watches & Warnings

There are currently no watches in effect.